DAL1156 KEWR-KDTW
Flight info
| Callsign | DAL1156 |
|---|---|
| Flight time | N/A |
| Altitude | 34000 |
| Route | GAYEL J95 CFB TRAAD JACCI |
| Aircraft | B738/M-VGDW/C |
Departure
| Time | 2026-04-26 16:40 |
|---|---|
| Airport | Newark Liberty International Airport (KEWR) |
Arrival
| Time | N/A |
|---|---|
| Airport | Detroit Metropolitan Wayne County Airport (KDTW) |
| Time | Latitude | Longitude | Altitude | Speed | Heading |
|---|---|---|---|---|---|
| 2026-04-26 16:32 | 40.69473 | -74.17271 | 18 ft | 0 kts | 236° |
| 2026-04-26 16:33 | 40.69476 | -74.17267 | 18 ft | 1 kts | 239° |
| 2026-04-26 16:33 | 40.69482 | -74.17250 | 17 ft | 2 kts | 241° |
| 2026-04-26 16:33 | 40.69490 | -74.17233 | 18 ft | 2 kts | 240° |
| 2026-04-26 16:34 | 40.69497 | -74.17216 | 17 ft | 2 kts | 241° |
| 2026-04-26 16:34 | 40.69505 | -74.17199 | 17 ft | 1 kts | 240° |
| 2026-04-26 16:34 | 40.69508 | -74.17192 | 18 ft | 1 kts | 237° |
| 2026-04-26 16:34 | 40.69508 | -74.17191 | 18 ft | 0 kts | 237° |
| 2026-04-26 16:36 | 40.69506 | -74.17193 | 17 ft | 0 kts | 226° |
| 2026-04-26 16:36 | 40.69501 | -74.17194 | 17 ft | 1 kts | 173° |
| 2026-04-26 16:37 | 40.69486 | -74.17176 | 17 ft | 4 kts | 139° |
| 2026-04-26 16:37 | 40.69460 | -74.17135 | 17 ft | 7 kts | 110° |
| 2026-04-26 16:37 | 40.69429 | -74.17080 | 18 ft | 8 kts | 168° |
| 2026-04-26 16:37 | 40.69360 | -74.17082 | 18 ft | 11 kts | 194° |
| 2026-04-26 16:38 | 40.69280 | -74.17123 | 17 ft | 13 kts | 203° |
| 2026-04-26 16:38 | 40.69186 | -74.17180 | 17 ft | 16 kts | 206° |
| 2026-04-26 16:38 | 40.69079 | -74.17251 | 17 ft | 18 kts | 206° |
| 2026-04-26 16:38 | 40.68957 | -74.17328 | 17 ft | 20 kts | 206° |
| 2026-04-26 16:39 | 40.68818 | -74.17416 | 18 ft | 23 kts | 206° |
| 2026-04-26 16:39 | 40.68665 | -74.17513 | 18 ft | 25 kts | 206° |
| 2026-04-26 16:39 | 40.68500 | -74.17618 | 18 ft | 27 kts | 206° |
| 2026-04-26 16:39 | 40.68333 | -74.17711 | 18 ft | 24 kts | 185° |
| 2026-04-26 16:40 | 40.68203 | -74.17599 | 17 ft | 24 kts | 109° |
| 2026-04-26 16:40 | 40.68402 | -74.17407 | 18 ft | 82 kts | 24° |
| 2026-04-26 16:40 | 40.69241 | -74.16869 | 96 ft | 173 kts | 26° |
| 2026-04-26 16:40 | 40.70383 | -74.16073 | 1044 ft | 199 kts | 26° |
| 2026-04-26 16:41 | 40.71606 | -74.15282 | 2369 ft | 210 kts | 24° |
| 2026-04-26 16:41 | 40.72929 | -74.14428 | 3624 ft | 228 kts | 25° |
| 2026-04-26 16:41 | 40.74358 | -74.13488 | 4956 ft | 242 kts | 25° |
| 2026-04-26 16:41 | 40.75975 | -74.12888 | 6141 ft | 258 kts | 359° |
| 2026-04-26 16:42 | 40.77690 | -74.13539 | 7531 ft | 266 kts | 333° |
| 2026-04-26 16:42 | 40.79301 | -74.14710 | 8887 ft | 272 kts | 332° |
| 2026-04-26 16:42 | 40.80983 | -74.15823 | 10165 ft | 280 kts | 335° |
| 2026-04-26 16:42 | 40.82744 | -74.16878 | 11335 ft | 290 kts | 336° |
| 2026-04-26 16:43 | 40.84644 | -74.17980 | 12258 ft | 308 kts | 336° |
| 2026-04-26 16:43 | 40.86663 | -74.19140 | 13149 ft | 325 kts | 336° |
| 2026-04-26 16:43 | 40.88781 | -74.20356 | 14018 ft | 341 kts | 336° |
| 2026-04-26 16:43 | 40.90973 | -74.21614 | 15029 ft | 351 kts | 336° |
| 2026-04-26 16:44 | 40.93200 | -74.22894 | 16120 ft | 357 kts | 336° |
| 2026-04-26 16:44 | 40.95484 | -74.24206 | 17187 ft | 362 kts | 336° |
| 2026-04-26 16:44 | 40.97807 | -74.25543 | 18163 ft | 369 kts | 335° |
| 2026-04-26 16:44 | 41.00148 | -74.26891 | 19083 ft | 375 kts | 335° |
| 2026-04-26 16:45 | 41.02542 | -74.28272 | 20011 ft | 380 kts | 335° |
| 2026-04-26 16:45 | 41.04992 | -74.29684 | 20897 ft | 386 kts | 334° |
| 2026-04-26 16:45 | 41.07460 | -74.31109 | 21755 ft | 391 kts | 334° |
| 2026-04-26 16:45 | 41.09956 | -74.32550 | 22561 ft | 397 kts | 334° |
| 2026-04-26 16:46 | 41.12473 | -74.34006 | 23342 ft | 402 kts | 334° |
| 2026-04-26 16:46 | 41.15047 | -74.35495 | 24090 ft | 407 kts | 334° |
| 2026-04-26 16:46 | 41.17647 | -74.37000 | 24801 ft | 413 kts | 334° |
| 2026-04-26 16:46 | 41.20283 | -74.38528 | 25503 ft | 417 kts | 334° |
| 2026-04-26 16:47 | 41.22974 | -74.40089 | 26165 ft | 422 kts | 333° |
| 2026-04-26 16:47 | 41.25668 | -74.41654 | 26825 ft | 427 kts | 333° |
| 2026-04-26 16:47 | 41.28397 | -74.43241 | 27440 ft | 432 kts | 333° |
| 2026-04-26 16:47 | 41.31134 | -74.44833 | 28063 ft | 436 kts | 333° |
| 2026-04-26 16:48 | 41.33928 | -74.46460 | 28625 ft | 441 kts | 333° |
| 2026-04-26 16:48 | 41.36720 | -74.48087 | 29230 ft | 444 kts | 333° |
| 2026-04-26 16:48 | 41.39553 | -74.49741 | 29760 ft | 449 kts | 333° |
| 2026-04-26 16:48 | 41.42426 | -74.51419 | 30264 ft | 454 kts | 333° |
| 2026-04-26 16:49 | 41.45260 | -74.53305 | 30631 ft | 460 kts | 328° |
| 2026-04-26 16:49 | 41.47894 | -74.55692 | 31174 ft | 460 kts | 320° |
| 2026-04-26 16:49 | 41.50196 | -74.58678 | 31602 ft | 463 kts | 308° |
| 2026-04-26 16:49 | 41.52077 | -74.62139 | 32008 ft | 467 kts | 301° |
| 2026-04-26 16:50 | 41.53793 | -74.65876 | 32445 ft | 472 kts | 299° |
| 2026-04-26 16:50 | 41.55425 | -74.69645 | 32823 ft | 477 kts | 298° |
| 2026-04-26 16:50 | 41.57063 | -74.73498 | 33212 ft | 482 kts | 298° |
| 2026-04-26 16:50 | 41.58730 | -74.77426 | 33589 ft | 487 kts | 298° |
| 2026-04-26 16:51 | 41.60394 | -74.81335 | 33941 ft | 493 kts | 299° |
| 2026-04-26 16:51 | 41.62091 | -74.85313 | 34328 ft | 497 kts | 299° |
| 2026-04-26 16:51 | 41.63831 | -74.89395 | 34362 ft | 509 kts | 299° |
| 2026-04-26 16:51 | 41.65599 | -74.93548 | 34369 ft | 522 kts | 299° |
| 2026-04-26 16:52 | 41.68631 | -75.00674 | 34367 ft | 532 kts | 299° |
| 2026-04-26 16:52 | 41.72855 | -75.10619 | 34369 ft | 531 kts | 299° |
| 2026-04-26 16:53 | 41.76490 | -75.19209 | 34369 ft | 531 kts | 299° |
| 2026-04-26 16:53 | 41.80130 | -75.27834 | 34370 ft | 532 kts | 299° |
| 2026-04-26 16:54 | 41.83742 | -75.36419 | 34371 ft | 532 kts | 299° |
| 2026-04-26 16:54 | 41.87350 | -75.45012 | 34371 ft | 532 kts | 299° |
| 2026-04-26 16:55 | 41.90963 | -75.53644 | 34371 ft | 532 kts | 299° |
| 2026-04-26 16:55 | 41.94558 | -75.62261 | 34369 ft | 532 kts | 299° |
| 2026-04-26 16:56 | 41.99963 | -75.75266 | 34367 ft | 532 kts | 298° |
| 2026-04-26 16:57 | 42.03542 | -75.83913 | 34367 ft | 531 kts | 298° |
| 2026-04-26 16:57 | 42.08911 | -75.96925 | 34367 ft | 531 kts | 298° |
| 2026-04-26 16:58 | 42.11873 | -76.04140 | 34368 ft | 531 kts | 297° |
| 2026-04-26 16:58 | 42.15237 | -76.14771 | 34367 ft | 529 kts | 285° |
| 2026-04-26 16:59 | 42.16076 | -76.19531 | 34371 ft | 526 kts | 278° |
| 2026-04-26 17:00 | 42.17746 | -76.38999 | 34368 ft | 525 kts | 273° |
| 2026-04-26 17:00 | 42.18824 | -76.53679 | 34366 ft | 525 kts | 273° |
| 2026-04-26 17:01 | 42.19544 | -76.63444 | 34367 ft | 525 kts | 273° |
| 2026-04-26 17:01 | 42.20259 | -76.73186 | 34368 ft | 525 kts | 272° |
| 2026-04-26 17:02 | 42.20964 | -76.82935 | 34369 ft | 525 kts | 272° |
| 2026-04-26 17:02 | 42.21664 | -76.92712 | 34370 ft | 525 kts | 272° |
| 2026-04-26 17:03 | 42.22351 | -77.02423 | 34371 ft | 525 kts | 272° |
| 2026-04-26 17:03 | 42.23035 | -77.12230 | 34371 ft | 525 kts | 272° |
| 2026-04-26 17:04 | 42.23709 | -77.21989 | 34370 ft | 525 kts | 272° |
| 2026-04-26 17:04 | 42.24375 | -77.31762 | 34369 ft | 525 kts | 272° |
| 2026-04-26 17:05 | 42.25030 | -77.41521 | 34369 ft | 525 kts | 272° |
| 2026-04-26 17:05 | 42.25806 | -77.51286 | 34368 ft | 526 kts | 277° |
| 2026-04-26 17:06 | 42.27286 | -77.60946 | 34370 ft | 528 kts | 281° |
| 2026-04-26 17:06 | 42.29022 | -77.70528 | 34371 ft | 528 kts | 282° |
| 2026-04-26 17:07 | 42.30766 | -77.80073 | 34372 ft | 528 kts | 281° |
| 2026-04-26 17:07 | 42.32508 | -77.89753 | 34371 ft | 528 kts | 281° |
| 2026-04-26 17:08 | 42.34210 | -77.99312 | 34371 ft | 528 kts | 281° |
| 2026-04-26 17:08 | 42.35907 | -78.08907 | 34371 ft | 528 kts | 281° |
| 2026-04-26 17:09 | 42.37322 | -78.16952 | 34371 ft | 528 kts | 281° |
| 2026-04-26 17:09 | 42.39289 | -78.28204 | 34372 ft | 528 kts | 281° |
| 2026-04-26 17:10 | 42.40957 | -78.37800 | 34371 ft | 528 kts | 281° |
| 2026-04-26 17:10 | 42.42629 | -78.47462 | 34371 ft | 528 kts | 281° |
| 2026-04-26 17:11 | 42.44288 | -78.57107 | 34370 ft | 528 kts | 281° |
| 2026-04-26 17:11 | 42.45929 | -78.66782 | 34369 ft | 528 kts | 279° |
| 2026-04-26 17:12 | 42.47209 | -78.81428 | 34369 ft | 524 kts | 270° |
| 2026-04-26 17:13 | 42.47743 | -78.96132 | 34367 ft | 523 kts | 269° |
| 2026-04-26 17:14 | 42.48223 | -79.10844 | 34365 ft | 524 kts | 269° |
| 2026-04-26 17:14 | 42.48674 | -79.25580 | 34365 ft | 524 kts | 269° |
| 2026-04-26 17:15 | 42.49102 | -79.40278 | 34364 ft | 524 kts | 269° |
| 2026-04-26 17:16 | 42.49369 | -79.50118 | 34364 ft | 523 kts | 269° |
| 2026-04-26 17:16 | 42.49628 | -79.59950 | 34364 ft | 524 kts | 269° |
| 2026-04-26 17:17 | 42.49896 | -79.69747 | 34363 ft | 523 kts | 269° |
| 2026-04-26 17:17 | 42.50153 | -79.79569 | 34363 ft | 523 kts | 269° |
| 2026-04-26 17:18 | 42.50396 | -79.89362 | 34364 ft | 523 kts | 269° |
| 2026-04-26 17:18 | 42.50630 | -79.99166 | 34363 ft | 523 kts | 269° |
| 2026-04-26 17:19 | 42.50965 | -80.13887 | 34362 ft | 519 kts | 269° |
| 2026-04-26 17:19 | 42.51073 | -80.18668 | 34363 ft | 506 kts | 269° |
| 2026-04-26 17:19 | 42.51177 | -80.23473 | 34364 ft | 508 kts | 269° |
| 2026-04-26 17:20 | 42.51340 | -80.31379 | 34363 ft | 508 kts | 268° |
| 2026-04-26 17:20 | 42.51564 | -80.42596 | 34363 ft | 511 kts | 268° |
| 2026-04-26 17:21 | 42.51747 | -80.52139 | 34363 ft | 510 kts | 269° |
| 2026-04-26 17:21 | 42.51924 | -80.61778 | 34363 ft | 510 kts | 269° |
| 2026-04-26 17:22 | 42.52049 | -80.71300 | 34364 ft | 510 kts | 267° |
| 2026-04-26 17:22 | 42.52134 | -80.80894 | 34363 ft | 510 kts | 267° |
| 2026-04-26 17:23 | 42.52217 | -80.90461 | 34363 ft | 510 kts | 267° |
| 2026-04-26 17:23 | 42.52297 | -80.99926 | 34358 ft | 494 kts | 267° |
| 2026-04-26 17:24 | 42.52337 | -81.04545 | 34108 ft | 482 kts | 267° |
| 2026-04-26 17:24 | 42.52373 | -81.09055 | 33473 ft | 479 kts | 267° |